Time,TemperatureF,DewpointF,PressureIn,WindDirection,WindDirectionDegrees,WindSpeedMPH,WindSpeedGustMPH,Humidity,HourlyPrecipIn,Conditions,Clouds,dailyrainin,SoftwareType,DateUTC
2013-05-07 00:00:00,58.5,48.8,30.10,North,352,0.0,2.0,70,0.00,,OVC,0.00,VWS V14.01,2013-05-07 04:00:00,
2013-05-07 00:01:00,58.6,48.9,30.10,North,354,0.0,2.0,70,0.00,,CLR,0.00,VWS V14.01,2013-05-07 04:01:00,
2013-05-07 00:02:00,58.5,48.8,30.10,North,354,0.0,2.0,70,0.00,,CLR,0.00,VWS V14.01,2013-05-07 04:02:00,
2013-05-07 00:07:00,58.5,48.8,30.10,North,353,0.0,0.0,70,0.00,,CLR,0.00,VWS V14.01,2013-05-07 04:07:00,
2013-05-07 00:12:00,58.5,48.8,30.11,North,353,0.0,0.0,70,0.00,,CLR,0.00,VWS V14.01,2013-05-07 04:12:00,
2013-05-07 00:17:00,58.5,49.1,30.11,North,353,0.0,0.0,71,0.00,,CLR,0.00,VWS V14.01,2013-05-07 04:17:00,
2013-05-07 00:22:00,58.2,49.2,30.11,North,352,0.0,0.0,72,0.00,,CLR,0.00,VWS V14.01,2013-05-07 04:22:00,
2013-05-07 00:27:00,58.1,49.1,30.11,North,353,0.0,0.0,72,0.00,,CLR,0.00,VWS V14.01,2013-05-07 04:27:00,
2013-05-07 00:30:00,58.0,49.0,30.11,North,6,0.0,0.0,72,0.00,,OVC,0.00,VWS V14.01,2013-05-07 04:30:00,
2013-05-07 00:33:00,58.1,49.1,30.11,North,6,0.0,0.0,72,0.00,,CLR,0.00,VWS V14.01,2013-05-07 04:33:00,
2013-05-07 00:38:00,58.1,49.1,30.11,North,6,0.0,0.0,72,0.00,,CLR,0.00,VWS V14.01,2013-05-07 04:38:00,
2013-05-07 00:43:00,58.2,49.2,30.11,NNW,333,0.0,0.0,72,0.00,,CLR,0.00,VWS V14.01,2013-05-07 04:43:00,
2013-05-07 00:48:00,58.0,49.0,30.11,NNW,334,0.0,0.0,72,0.00,,CLR,0.00,VWS V14.01,2013-05-07 04:48:00,
2013-05-07 00:53:00,58.1,49.5,30.11,NNW,335,0.0,0.0,73,0.00,,CLR,0.00,VWS V14.01,2013-05-07 04:53:00,
2013-05-07 00:58:00,58.0,49.4,30.11,NNW,340,0.0,0.0,73,0.00,,CLR,0.00,VWS V14.01,2013-05-07 04:58:00,
2013-05-07 01:00:00,57.9,49.3,30.11,NNW,340,0.0,0.0,73,0.00,,OVC,0.00,VWS V14.01,2013-05-07 05:00:00,
2013-05-07 01:03:00,57.9,49.3,30.11,NNW,340,0.0,0.0,73,0.00,,CLR,0.00,VWS V14.01,2013-05-07 05:03:00,
2013-05-07 01:08:00,57.7,49.5,30.11,North,353,0.0,0.0,74,0.00,,CLR,0.00,VWS V14.01,2013-05-07 05:08:00,
2013-05-07 01:13:00,57.4,49.2,30.11,North,352,0.0,0.0,74,0.00,,CLR,0.00,VWS V14.01,2013-05-07 05:13:00,
2013-05-07 01:19:00,57.4,49.5,30.11,North,352,0.0,0.0,75,0.00,,CLR,0.00,VWS V14.01,2013-05-07 05:19:00,
2013-05-07 01:24:00,57.5,49.7,30.11,North,352,0.0,0.0,75,0.00,,CLR,0.00,VWS V14.01,2013-05-07 05:24:00,
2013-05-07 01:29:00,57.5,49.7,30.11,North,352,0.0,0.0,75,0.00,,CLR,0.00,VWS V14.01,2013-05-07 05:29:00,
2013-05-07 01:30:00,57.5,49.7,30.11,North,352,0.0,0.0,75,0.00,,OVC,0.00,VWS V14.01,2013-05-07 05:30:00,
2013-05-07 01:34:00,57.5,49.7,30.11,North,352,0.0,0.0,75,0.00,,CLR,0.00,VWS V14.01,2013-05-07 05:34:00,
2013-05-07 01:39:00,57.5,49.7,30.11,North,352,0.0,0.0,75,0.00,,CLR,0.00,VWS V14.01,2013-05-07 05:39:00,
2013-05-07 01:44:00,57.4,49.5,30.11,North,352,0.0,0.0,75,0.00,,CLR,0.00,VWS V14.01,2013-05-07 05:44:00,
2013-05-07 01:49:00,57.4,49.5,30.11,North,352,0.0,0.0,75,0.00,,CLR,0.00,VWS V14.01,2013-05-07 05:49:00,
2013-05-07 01:54:00,57.4,49.5,30.11,North,352,0.0,0.0,75,0.00,,CLR,0.00,VWS V14.01,2013-05-07 05:54:00,
2013-05-07 01:59:00,57.1,49.3,30.11,North,352,0.0,0.0,75,0.00,,CLR,0.00,VWS V14.01,2013-05-07 05:59:00,
2013-05-07 02:00:00,56.8,49.3,30.11,North,352,0.0,0.0,76,0.00,,OVC,0.00,VWS V14.01,2013-05-07 06:00:00,
2013-05-07 02:04:00,56.7,49.6,30.11,North,351,0.0,0.0,77,0.00,,CLR,0.00,VWS V14.01,2013-05-07 06:04:00,
2013-05-07 02:10:00,56.5,49.7,30.11,North,352,0.0,0.0,78,0.00,,CLR,0.00,VWS V14.01,2013-05-07 06:10:00,
2013-05-07 02:15:00,56.4,49.6,30.11,North,353,0.0,0.0,78,0.00,,CLR,0.00,VWS V14.01,2013-05-07 06:15:00,
2013-05-07 02:20:00,55.9,49.2,30.11,North,352,0.0,0.0,78,0.00,,CLR,0.00,VWS V14.01,2013-05-07 06:20:00,
2013-05-07 02:25:00,55.7,49.3,30.11,North,353,0.0,0.0,79,0.00,,CLR,0.00,VWS V14.01,2013-05-07 06:25:00,
2013-05-07 02:30:00,55.6,49.2,30.11,North,353,0.0,0.0,79,0.00,,CLR,0.00,VWS V14.01,2013-05-07 06:30:00,
2013-05-07 02:36:00,55.5,49.4,30.11,North,351,0.0,0.0,80,0.00,,CLR,0.00,VWS V14.01,2013-05-07 06:36:00,
2013-05-07 02:41:00,55.2,48.8,30.11,North,351,0.0,0.0,79,0.00,,CLR,0.00,VWS V14.01,2013-05-07 06:41:00,
2013-05-07 02:46:00,54.9,49.2,30.11,North,350,0.0,0.0,81,0.00,,CLR,0.00,VWS V14.01,2013-05-07 06:46:00,
2013-05-07 02:51:00,55.0,49.3,30.11,North,349,0.0,0.0,81,0.00,,CLR,0.00,VWS V14.01,2013-05-07 06:51:00,
2013-05-07 02:56:00,54.9,49.2,30.11,North,350,0.0,0.0,81,0.00,,CLR,0.00,VWS V14.01,2013-05-07 06:56:00,
2013-05-07 03:00:00,54.5,49.1,30.11,North,350,0.0,0.0,82,0.00,,OVC,0.00,VWS V14.01,2013-05-07 07:00:00,
2013-05-07 03:01:00,54.5,49.1,30.11,North,350,0.0,0.0,82,0.00,,CLR,0.00,VWS V14.01,2013-05-07 07:01:00,
2013-05-07 03:06:00,54.5,49.1,30.11,North,349,0.0,0.0,82,0.00,,CLR,0.00,VWS V14.01,2013-05-07 07:06:00,
2013-05-07 03:11:00,54.6,49.2,30.11,North,350,0.0,0.0,82,0.00,,CLR,0.00,VWS V14.01,2013-05-07 07:11:00,
2013-05-07 03:16:00,54.6,49.2,30.11,North,349,0.0,0.0,82,0.00,,CLR,0.00,VWS V14.01,2013-05-07 07:16:00,
2013-05-07 03:21:00,54.6,49.2,30.11,North,350,0.0,0.0,82,0.00,,CLR,0.00,VWS V14.01,2013-05-07 07:21:00,
2013-05-07 03:27:00,54.6,49.2,30.11,North,352,0.0,0.0,82,0.00,,CLR,0.00,VWS V14.01,2013-05-07 07:27:00,
2013-05-07 03:30:00,54.5,49.5,30.11,North,352,0.0,0.0,83,0.00,,OVC,0.00,VWS V14.01,2013-05-07 07:30:00,
2013-05-07 03:32:00,54.5,49.1,30.11,North,351,0.0,0.0,82,0.00,,CLR,0.00,VWS V14.01,2013-05-07 07:32:00,
2013-05-07 03:37:00,54.4,49.3,30.11,North,352,0.0,0.0,83,0.00,,CLR,0.00,VWS V14.01,2013-05-07 07:37:00,
2013-05-07 03:42:00,54.2,49.2,30.11,North,351,0.0,0.0,83,0.00,,CLR,0.00,VWS V14.01,2013-05-07 07:42:00,
2013-05-07 03:47:00,54.1,49.1,30.11,North,351,0.0,0.0,83,0.00,,CLR,0.00,VWS V14.01,2013-05-07 07:47:00,
2013-05-07 03:52:00,54.0,49.3,30.11,North,351,0.0,0.0,84,0.00,,CLR,0.00,VWS V14.01,2013-05-07 07:52:00,
2013-05-07 03:57:00,53.7,48.7,30.12,North,352,0.0,0.0,83,0.00,,CLR,0.00,VWS V14.01,2013-05-07 07:57:00,
2013-05-07 04:00:00,53.4,48.7,30.12,North,352,0.0,0.0,84,0.00,,OVC,0.00,VWS V14.01,2013-05-07 08:00:00,
2013-05-07 04:02:00,53.4,48.7,30.12,North,352,0.0,0.0,84,0.00,,CLR,0.00,VWS V14.01,2013-05-07 08:02:00,
2013-05-07 04:07:00,53.2,48.8,30.12,North,352,0.0,0.0,85,0.00,,CLR,0.00,VWS V14.01,2013-05-07 08:07:00,
2013-05-07 04:12:00,53.3,49.2,30.12,North,351,0.0,0.0,86,0.00,,CLR,0.00,VWS V14.01,2013-05-07 08:12:00,
2013-05-07 04:18:00,53.3,49.2,30.12,North,351,0.0,0.0,86,0.00,,CLR,0.00,VWS V14.01,2013-05-07 08:18:00,
2013-05-07 04:23:00,53.1,48.7,30.12,North,349,0.0,0.0,85,0.00,,CLR,0.00,VWS V14.01,2013-05-07 08:23:00,
2013-05-07 04:28:00,53.1,49.3,30.12,North,350,0.0,0.0,87,0.00,,CLR,0.00,VWS V14.01,2013-05-07 08:28:00,
2013-05-07 04:30:00,53.1,49.3,30.12,North,349,0.0,0.0,87,0.00,,OVC,0.00,VWS V14.01,2013-05-07 08:30:00,
2013-05-07 04:33:00,53.0,49.2,30.12,North,350,0.0,0.0,87,0.00,,CLR,0.00,VWS V14.01,2013-05-07 08:33:00,
2013-05-07 04:38:00,53.1,49.3,30.12,North,350,0.0,0.0,87,0.00,,CLR,0.00,VWS V14.01,2013-05-07 08:38:00,
2013-05-07 04:43:00,53.2,49.4,30.12,North,350,0.0,0.0,87,0.00,,CLR,0.00,VWS V14.01,2013-05-07 08:43:00,
2013-05-07 04:48:00,53.3,49.5,30.12,North,349,0.0,0.0,87,0.00,,CLR,0.00,VWS V14.01,2013-05-07 08:48:00,
2013-05-07 04:53:00,53.4,49.6,30.12,North,349,0.0,0.0,87,0.00,,CLR,0.00,VWS V14.01,2013-05-07 08:53:00,
2013-05-07 04:58:00,53.4,49.6,30.12,North,349,0.0,0.0,87,0.00,,CLR,0.00,VWS V14.01,2013-05-07 08:58:00,
2013-05-07 05:00:00,53.4,49.6,30.12,North,350,0.0,0.0,87,0.00,,OVC,0.00,VWS V14.01,2013-05-07 09:00:00,
2013-05-07 05:04:00,53.4,49.6,30.12,North,350,0.0,0.0,87,0.00,,CLR,0.00,VWS V14.01,2013-05-07 09:04:00,
2013-05-07 05:09:00,53.0,48.9,30.12,North,350,0.0,0.0,86,0.00,,CLR,0.00,VWS V14.01,2013-05-07 09:09:00,
2013-05-07 05:14:00,52.7,49.2,30.12,North,349,0.0,0.0,88,0.00,,CLR,0.00,VWS V14.01,2013-05-07 09:14:00,
2013-05-07 05:19:00,52.4,48.7,30.12,North,349,0.0,0.0,87,0.00,,CLR,0.00,VWS V14.01,2013-05-07 09:19:00,
2013-05-07 05:24:00,52.0,48.3,30.12,North,350,0.0,0.0,87,0.00,,CLR,0.00,VWS V14.01,2013-05-07 09:24:00,
2013-05-07 05:29:00,51.9,48.8,30.12,North,350,0.0,0.0,89,0.00,,CLR,0.00,VWS V14.01,2013-05-07 09:29:00,
2013-05-07 05:30:00,51.8,48.7,30.12,North,350,0.0,0.0,89,0.00,,OVC,0.00,VWS V14.01,2013-05-07 09:30:00,
2013-05-07 05:34:00,51.8,48.7,30.12,North,350,0.0,0.0,89,0.00,,CLR,0.00,VWS V14.01,2013-05-07 09:34:00,
2013-05-07 05:39:00,51.5,48.4,30.12,North,349,0.0,0.0,89,0.00,,CLR,0.00,VWS V14.01,2013-05-07 09:39:00,
2013-05-07 05:44:00,50.9,47.8,30.12,North,350,0.0,0.0,89,0.00,,CLR,0.00,VWS V14.01,2013-05-07 09:44:00,
2013-05-07 05:49:00,51.0,48.5,30.12,North,352,0.0,0.0,91,0.00,,CLR,0.00,VWS V14.01,2013-05-07 09:49:00,
2013-05-07 05:55:00,51.3,48.8,30.12,North,351,0.0,0.0,91,0.00,,CLR,0.00,VWS V14.01,2013-05-07 09:55:00,
2013-05-07 06:00:00,51.4,48.9,30.13,North,351,0.0,0.0,91,0.00,,CLR,0.00,VWS V14.01,2013-05-07 10:00:00,
2013-05-07 06:05:00,51.6,49.1,30.13,North,352,0.0,0.0,91,0.00,,CLR,0.00,VWS V14.01,2013-05-07 10:05:00,
2013-05-07 06:10:00,51.6,49.1,30.13,North,352,0.0,0.0,91,0.00,,CLR,0.00,VWS V14.01,2013-05-07 10:10:00,
2013-05-07 06:15:00,51.6,49.1,30.13,North,352,0.0,0.0,91,0.00,,CLR,0.00,VWS V14.01,2013-05-07 10:15:00,
2013-05-07 06:20:00,51.7,49.2,30.13,North,352,0.0,0.0,91,0.00,,CLR,0.00,VWS V14.01,2013-05-07 10:20:00,
2013-05-07 06:25:00,52.1,49.6,30.13,North,352,0.0,0.0,91,0.00,,CLR,0.00,VWS V14.01,2013-05-07 10:25:00,
2013-05-07 06:30:00,52.3,49.5,30.13,North,355,0.0,0.0,90,0.00,,CLR,0.00,VWS V14.01,2013-05-07 10:30:00,
2013-05-07 06:35:00,52.6,49.8,30.13,North,355,0.0,0.0,90,0.00,,CLR,0.00,VWS V14.01,2013-05-07 10:35:00,
2013-05-07 06:41:00,53.1,50.2,30.13,North,356,0.0,0.0,90,0.00,,CLR,0.00,VWS V14.01,2013-05-07 10:41:00,
2013-05-07 06:46:00,53.7,50.5,30.13,North,355,0.0,0.0,89,0.00,,CLR,0.00,VWS V14.01,2013-05-07 10:46:00,
2013-05-07 06:51:00,54.4,50.9,30.14,North,355,0.0,0.0,88,0.00,,CLR,0.00,VWS V14.01,2013-05-07 10:51:00,
2013-05-07 06:56:00,54.9,51.1,30.14,North,355,0.0,0.0,87,0.00,,CLR,0.00,VWS V14.01,2013-05-07 10:56:00,
2013-05-07 07:00:00,56.1,52.0,30.13,North,355,0.0,0.0,86,0.00,,OVC,0.00,VWS V14.01,2013-05-07 11:00:00,
2013-05-07 07:01:00,55.7,51.6,30.14,North,355,0.0,0.0,86,0.00,,CLR,0.00,VWS V14.01,2013-05-07 11:01:00,
2013-05-07 07:06:00,56.9,52.4,30.14,North,356,0.0,0.0,85,0.00,,CLR,0.00,VWS V14.01,2013-05-07 11:06:00,
2013-05-07 07:11:00,57.9,52.8,30.14,North,354,0.0,0.0,83,0.00,,CLR,0.00,VWS V14.01,2013-05-07 11:11:00,
2013-05-07 07:16:00,58.8,52.3,30.14,North,356,0.0,0.0,79,0.00,,CLR,0.00,VWS V14.01,2013-05-07 11:16:00,
2013-05-07 07:21:00,59.2,52.3,30.14,SE,127,0.0,0.0,78,0.00,,CLR,0.00,VWS V14.01,2013-05-07 11:21:00,
2013-05-07 07:26:00,59.5,53.0,30.14,SE,138,0.0,0.0,79,0.00,,CLR,0.00,VWS V14.01,2013-05-07 11:26:00,
2013-05-07 07:30:00,60.5,52.9,30.14,SSE,148,0.0,0.0,76,0.00,,OVC,0.00,VWS V14.01,2013-05-07 11:30:00,
2013-05-07 07:32:00,60.3,53.1,30.14,SE,136,0.0,0.0,77,0.00,,CLR,0.00,VWS V14.01,2013-05-07 11:32:00,
2013-05-07 07:37:00,60.9,52.9,30.14,SE,142,0.0,0.0,75,0.00,,CLR,0.00,VWS V14.01,2013-05-07 11:37:00,
2013-05-07 07:42:00,61.5,53.5,30.14,SSE,148,0.0,0.0,75,0.00,,CLR,0.00,VWS V14.01,2013-05-07 11:42:00,
2013-05-07 07:47:00,62.0,53.6,30.14,SE,145,0.0,0.0,74,0.00,,CLR,0.00,VWS V14.01,2013-05-07 11:47:00,
2013-05-07 07:52:00,62.3,53.9,30.14,SE,145,0.0,0.0,74,0.00,,CLR,0.00,VWS V14.01,2013-05-07 11:52:00,
2013-05-07 07:57:00,62.7,53.9,30.14,SE,132,0.0,0.0,73,0.00,,CLR,0.00,VWS V14.01,2013-05-07 11:57:00,
2013-05-07 08:00:00,63.2,54.8,30.14,SE,129,0.0,0.0,74,0.00,,OVC,0.00,VWS V14.01,2013-05-07 12:00:00,
2013-05-07 08:02:00,63.1,54.7,30.14,SE,134,0.0,0.0,74,0.00,,CLR,0.00,VWS V14.01,2013-05-07 12:02:00,
2013-05-07 08:07:00,64.0,54.8,30.14,SE,138,0.0,0.0,72,0.00,,CLR,0.00,VWS V14.01,2013-05-07 12:07:00,
2013-05-07 08:12:00,65.0,54.6,30.14,SE,145,0.0,0.0,69,0.00,,CLR,0.00,VWS V14.01,2013-05-07 12:12:00,
2013-05-07 08:17:00,65.1,54.7,30.14,ENE,66,1.0,2.0,69,0.00,,CLR,0.00,VWS V14.01,2013-05-07 12:17:00,
2013-05-07 08:23:00,65.4,54.2,30.14,SSW,204,1.0,4.0,67,0.00,,CLR,0.00,VWS V14.01,2013-05-07 12:23:00,
2013-05-07 08:28:00,65.6,54.4,30.14,SW,231,1.0,4.0,67,0.00,,CLR,0.00,VWS V14.01,2013-05-07 12:28:00,
2013-05-07 08:30:00,65.9,54.7,30.14,SW,230,1.0,4.0,67,0.00,,OVC,0.00,VWS V14.01,2013-05-07 12:30:00,
2013-05-07 08:33:00,65.9,54.7,30.14,SW,224,1.0,1.0,67,0.00,,CLR,0.00,VWS V14.01,2013-05-07 12:33:00,
2013-05-07 08:38:00,66.1,54.4,30.14,SW,215,2.0,3.0,66,0.00,,CLR,0.00,VWS V14.01,2013-05-07 12:38:00,
2013-05-07 08:43:00,66.3,55.0,30.14,South,179,3.0,4.0,67,0.00,,CLR,0.00,VWS V14.01,2013-05-07 12:43:00,
2013-05-07 08:48:00,66.7,55.0,30.14,SE,145,2.0,4.0,66,0.00,,CLR,0.00,VWS V14.01,2013-05-07 12:48:00,
2013-05-07 08:53:00,67.3,55.2,30.14,SSE,163,3.0,4.0,65,0.00,,CLR,0.00,VWS V14.01,2013-05-07 12:53:00,
2013-05-07 08:58:00,67.6,55.0,30.14,South,172,2.0,4.0,64,0.00,,CLR,0.00,VWS V14.01,2013-05-07 12:58:00,
2013-05-07 09:00:00,67.9,55.3,30.14,SSE,159,1.0,4.0,64,0.00,,OVC,0.00,VWS V14.01,2013-05-07 13:00:00,
2013-05-07 09:03:00,68.0,55.4,30.14,South,169,1.0,2.0,64,0.00,,CLR,0.00,VWS V14.01,2013-05-07 13:03:00,
2013-05-07 09:08:00,68.4,55.3,30.14,SSW,212,1.0,4.0,63,0.00,,CLR,0.00,VWS V14.01,2013-05-07 13:08:00,
2013-05-07 09:13:00,68.5,55.4,30.14,SSW,194,2.0,4.0,63,0.00,,CLR,0.00,VWS V14.01,2013-05-07 13:13:00,
2013-05-07 09:19:00,68.4,54.9,30.14,SSE,154,2.0,4.0,62,0.00,,CLR,0.00,VWS V14.01,2013-05-07 13:19:00,
2013-05-07 09:24:00,68.9,54.9,30.14,SE,139,1.0,4.0,61,0.00,,CLR,0.00,VWS V14.01,2013-05-07 13:24:00,
2013-05-07 09:29:00,69.5,55.5,30.14,ESE,110,2.0,4.0,61,0.00,,CLR,0.00,VWS V14.01,2013-05-07 13:29:00,
2013-05-07 09:30:00,69.7,55.7,30.14,SSW,198,2.0,4.0,61,0.00,,OVC,0.00,VWS V14.01,2013-05-07 13:30:00,
2013-05-07 09:34:00,69.7,55.7,30.14,South,185,3.0,5.0,61,0.00,,CLR,0.00,VWS V14.01,2013-05-07 13:34:00,
2013-05-07 09:39:00,70.1,55.1,30.14,SSE,150,1.0,5.0,59,0.00,,CLR,0.00,VWS V14.01,2013-05-07 13:39:00,
2013-05-07 09:44:00,70.8,55.8,30.14,SE,129,1.0,5.0,59,0.00,,CLR,0.00,VWS V14.01,2013-05-07 13:44:00,
2013-05-07 09:49:00,71.2,55.7,30.14,East,101,0.0,5.0,58,0.00,,CLR,0.00,VWS V14.01,2013-05-07 13:49:00,
2013-05-07 09:54:00,71.0,54.5,30.14,SE,125,2.0,5.0,56,0.00,,CLR,0.00,VWS V14.01,2013-05-07 13:54:00,
2013-05-07 09:59:00,71.1,56.1,30.14,SE,125,0.0,5.0,59,0.00,,CLR,0.00,VWS V14.01,2013-05-07 13:59:00,
2013-05-07 10:00:00,71.6,56.1,30.14,SSW,200,2.0,5.0,58,0.00,,OVC,0.00,VWS V14.01,2013-05-07 14:00:00,
2013-05-07 10:05:00,71.8,54.3,30.14,ESE,118,1.0,2.0,54,0.00,,CLR,0.00,VWS V14.01,2013-05-07 14:05:00,
2013-05-07 10:10:00,72.2,54.7,30.14,South,174,1.0,3.0,54,0.00,,CLR,0.00,VWS V14.01,2013-05-07 14:10:00,
2013-05-07 10:15:00,71.9,53.3,30.14,West,264,2.0,3.0,52,0.00,,CLR,0.00,VWS V14.01,2013-05-07 14:15:00,
2013-05-07 10:20:00,72.0,52.9,30.14,NNE,19,2.0,3.0,51,0.00,,CLR,0.00,VWS V14.01,2013-05-07 14:20:00,
2013-05-07 10:25:00,72.2,53.1,30.14,SSW,202,1.0,3.0,51,0.00,,CLR,0.00,VWS V14.01,2013-05-07 14:25:00,
2013-05-07 10:30:00,72.7,53.0,30.14,East,91,3.0,4.0,50,0.00,,CLR,0.00,VWS V14.01,2013-05-07 14:30:00,
2013-05-07 10:35:00,72.9,53.7,30.14,ESE,105,1.0,3.0,51,0.00,,CLR,0.00,VWS V14.01,2013-05-07 14:35:00,
2013-05-07 10:40:00,72.9,51.5,30.14,ESE,115,1.0,3.0,47,0.00,,CLR,0.00,VWS V14.01,2013-05-07 14:40:00,
2013-05-07 10:45:00,73.1,52.3,30.14,ESE,114,2.0,4.0,48,0.00,,CLR,0.00,VWS V14.01,2013-05-07 14:45:00,
2013-05-07 10:50:00,73.2,52.9,30.14,SE,135,3.0,4.0,49,0.00,,CLR,0.00,VWS V14.01,2013-05-07 14:50:00,
2013-05-07 10:56:00,73.6,53.3,30.14,ESE,110,1.0,4.0,49,0.00,,CLR,0.00,VWS V14.01,2013-05-07 14:56:00,
2013-05-07 11:00:00,74.2,54.9,30.14,SE,143,0.0,4.0,51,0.00,,OVC,0.00,VWS V14.01,2013-05-07 15:00:00,
2013-05-07 11:01:00,73.9,55.7,30.14,SE,129,1.0,4.0,53,0.00,,CLR,0.00,VWS V14.01,2013-05-07 15:01:00,
2013-05-07 11:06:00,74.4,52.9,30.14,SE,129,3.0,5.0,47,0.00,,CLR,0.00,VWS V14.01,2013-05-07 15:06:00,
2013-05-07 11:11:00,74.2,52.1,30.14,SSE,158,0.0,7.0,46,0.00,,CLR,0.00,VWS V14.01,2013-05-07 15:11:00,
2013-05-07 11:16:00,73.9,51.8,30.13,NE,41,2.0,7.0,46,0.00,,CLR,0.00,VWS V14.01,2013-05-07 15:16:00,
2013-05-07 11:21:00,73.8,51.8,30.13,SE,124,1.0,8.0,46,0.00,,CLR,0.00,VWS V14.01,2013-05-07 15:21:00,
2013-05-07 11:26:00,74.1,51.4,30.13,SE,138,4.0,8.0,45,0.00,,CLR,0.00,VWS V14.01,2013-05-07 15:26:00,
2013-05-07 11:30:00,74.4,51.1,30.13,SE,145,1.0,8.0,44,0.00,,OVC,0.00,VWS V14.01,2013-05-07 15:30:00,
2013-05-07 11:31:00,74.4,50.5,30.13,SSE,167,3.0,8.0,43,0.00,,CLR,0.00,VWS V14.01,2013-05-07 15:31:00,
2013-05-07 11:36:00,74.8,52.1,30.13,ESE,107,2.0,3.0,45,0.00,,CLR,0.00,VWS V14.01,2013-05-07 15:36:00,
2013-05-07 11:42:00,75.1,51.7,30.13,ENE,73,2.0,5.0,44,0.00,,CLR,0.00,VWS V14.01,2013-05-07 15:42:00,
2013-05-07 11:47:00,74.9,50.9,30.13,ENE,66,1.0,5.0,43,0.00,,CLR,0.00,VWS V14.01,2013-05-07 15:47:00,
2013-05-07 11:52:00,75.1,51.7,30.13,ESE,122,3.0,5.0,44,0.00,,CLR,0.00,VWS V14.01,2013-05-07 15:52:00,
2013-05-07 11:57:00,75.2,50.6,30.12,SSE,163,2.0,5.0,42,0.00,,CLR,0.00,VWS V14.01,2013-05-07 15:57:00,
2013-05-07 12:00:00,75.0,51.0,30.12,SE,142,1.0,5.0,43,0.00,,OVC,0.00,VWS V14.01,2013-05-07 16:00:00,
2013-05-07 12:02:00,75.0,51.6,30.12,ESE,102,1.0,5.0,44,0.00,,CLR,0.00,VWS V14.01,2013-05-07 16:02:00,
2013-05-07 12:07:00,74.8,52.1,30.12,ESE,117,3.0,4.0,45,0.00,,CLR,0.00,VWS V14.01,2013-05-07 16:07:00,
2013-05-07 12:12:00,75.1,51.7,30.12,East,81,1.0,8.0,44,0.00,,CLR,0.00,VWS V14.01,2013-05-07 16:12:00,
2013-05-07 12:17:00,75.5,50.2,30.12,WSW,245,4.0,8.0,41,0.00,,CLR,0.00,VWS V14.01,2013-05-07 16:17:00,
2013-05-07 12:22:00,75.8,47.0,30.12,SW,229,1.0,8.0,36,0.00,,CLR,0.00,VWS V14.01,2013-05-07 16:22:00,
2013-05-07 12:28:00,75.5,48.1,30.11,SE,143,0.0,8.0,38,0.00,,CLR,0.00,VWS V14.01,2013-05-07 16:28:00,
2013-05-07 12:30:00,76.1,51.4,30.11,SE,145,2.0,8.0,42,0.00,,OVC,0.00,VWS V14.01,2013-05-07 16:30:00,
2013-05-07 12:33:00,76.1,51.4,30.11,SE,145,2.0,8.0,42,0.00,,CLR,0.00,VWS V14.01,2013-05-07 16:33:00,
2013-05-07 12:38:00,76.2,50.8,30.11,East,94,1.0,9.0,41,0.00,,CLR,0.00,VWS V14.01,2013-05-07 16:38:00,
2013-05-07 12:43:00,76.6,52.5,30.11,SSW,195,2.0,9.0,43,0.00,,CLR,0.00,VWS V14.01,2013-05-07 16:43:00,
2013-05-07 12:48:00,76.4,51.0,30.11,South,181,2.0,9.0,41,0.00,,CLR,0.00,VWS V14.01,2013-05-07 16:48:00,
2013-05-07 12:53:00,76.9,52.1,30.11,SSE,160,3.0,9.0,42,0.00,,CLR,0.00,VWS V14.01,2013-05-07 16:53:00,
2013-05-07 12:58:00,76.8,49.3,30.11,SE,145,1.0,9.0,38,0.00,,CLR,0.00,VWS V14.01,2013-05-07 16:58:00,
2013-05-07 13:00:00,76.7,51.9,30.11,South,181,2.0,9.0,42,0.00,,OVC,0.00,VWS V14.01,2013-05-07 17:00:00,
2013-05-07 13:03:00,76.7,51.9,30.11,ESE,117,1.0,2.0,42,0.00,,CLR,0.00,VWS V14.01,2013-05-07 17:03:00,
2013-05-07 13:08:00,76.8,52.6,30.11,ESE,105,1.0,8.0,43,0.00,,CLR,0.00,VWS V14.01,2013-05-07 17:08:00,
2013-05-07 13:14:00,76.1,52.0,30.10,SSW,211,1.0,8.0,43,0.00,,CLR,0.00,VWS V14.01,2013-05-07 17:14:00,
2013-05-07 13:19:00,75.6,51.5,30.10,South,188,3.0,8.0,43,0.00,,CLR,0.00,VWS V14.01,2013-05-07 17:19:00,
2013-05-07 13:24:00,75.8,52.4,30.10,SE,143,3.0,8.0,44,0.00,,CLR,0.00,VWS V14.01,2013-05-07 17:24:00,
2013-05-07 13:29:00,75.7,50.4,30.10,SW,215,2.0,8.0,41,0.00,,CLR,0.00,VWS V14.01,2013-05-07 17:29:00,
2013-05-07 13:30:00,75.7,51.0,30.10,SSE,162,5.0,8.0,42,0.00,,OVC,0.00,VWS V14.01,2013-05-07 17:30:00,
2013-05-07 13:34:00,75.7,50.4,30.10,ESE,110,4.0,11.0,41,0.00,,CLR,0.00,VWS V14.01,2013-05-07 17:34:00,
2013-05-07 13:39:00,75.9,47.8,30.10,South,187,7.0,11.0,37,0.00,,CLR,0.00,VWS V14.01,2013-05-07 17:39:00,
2013-05-07 13:44:00,76.0,46.4,30.10,SE,145,4.0,11.0,35,0.00,,CLR,0.00,VWS V14.01,2013-05-07 17:44:00,
2013-05-07 13:49:00,75.9,48.5,30.09,WSW,248,3.0,11.0,38,0.00,,CLR,0.00,VWS V14.01,2013-05-07 17:49:00,
2013-05-07 13:54:00,76.0,48.6,30.09,ESE,118,6.0,11.0,38,0.00,,CLR,0.00,VWS V14.01,2013-05-07 17:54:00,
2013-05-07 13:59:00,76.0,48.6,30.09,ESE,103,3.0,11.0,38,0.00,,CLR,0.00,VWS V14.01,2013-05-07 17:59:00,
2013-05-07 14:00:00,76.1,49.4,30.09,ESE,119,2.0,11.0,39,0.00,,OVC,0.00,VWS V14.01,2013-05-07 18:00:00,
2013-05-07 14:05:00,76.3,50.9,30.09,ESE,110,2.0,8.0,41,0.00,,CLR,0.00,VWS V14.01,2013-05-07 18:05:00,
2013-05-07 14:10:00,76.3,48.1,30.09,SSW,208,3.0,8.0,37,0.00,,CLR,0.00,VWS V14.01,2013-05-07 18:10:00,
2013-05-07 14:15:00,76.2,49.5,30.09,South,188,4.0,8.0,39,0.00,,CLR,0.00,VWS V14.01,2013-05-07 18:15:00,
2013-05-07 14:20:00,76.1,49.4,30.09,East,93,3.0,11.0,39,0.00,,CLR,0.00,VWS V14.01,2013-05-07 18:20:00,
2013-05-07 14:25:00,75.7,47.6,30.08,SE,124,3.0,11.0,37,0.00,,CLR,0.00,VWS V14.01,2013-05-07 18:25:00,
2013-05-07 14:30:00,76.1,48.7,30.08,ESE,107,7.0,11.0,38,0.00,,CLR,0.00,VWS V14.01,2013-05-07 18:30:00,
2013-05-07 14:35:00,76.0,48.6,30.08,SSE,162,2.0,7.0,38,0.00,,CLR,0.00,VWS V14.01,2013-05-07 18:35:00,
2013-05-07 14:40:00,76.0,48.6,30.08,East,83,4.0,7.0,38,0.00,,CLR,0.00,VWS V14.01,2013-05-07 18:40:00,
2013-05-07 14:46:00,76.1,48.7,30.08,SE,146,1.0,7.0,38,0.00,,FEW055,0.00,VWS V14.01,2013-05-07 18:46:00,
2013-05-07 14:51:00,76.0,50.0,30.08,SSE,151,2.0,8.0,40,0.00,,FEW055,0.00,VWS V14.01,2013-05-07 18:51:00,
2013-05-07 14:56:00,76.0,47.9,30.08,South,169,5.0,8.0,37,0.00,,FEW055,0.00,VWS V14.01,2013-05-07 18:56:00,
2013-05-07 15:00:00,75.9,47.8,30.07,ESE,121,7.0,8.0,37,0.00,,OVC,0.00,VWS V14.01,2013-05-07 19:00:00,
2013-05-07 15:01:00,75.8,48.4,30.07,ESE,110,1.0,8.0,38,0.00,,FEW055,0.00,VWS V14.01,2013-05-07 19:01:00,
2013-05-07 15:06:00,75.9,47.1,30.07,SSW,192,3.0,8.0,36,0.00,,FEW055,0.00,VWS V14.01,2013-05-07 19:06:00,
2013-05-07 15:11:00,75.7,48.3,30.07,SE,130,2.0,8.0,38,0.00,,FEW055,0.00,VWS V14.01,2013-05-07 19:11:00,
2013-05-07 15:16:00,76.0,48.6,30.07,SE,146,3.0,8.0,38,0.00,,FEW055,0.00,VWS V14.01,2013-05-07 19:16:00,
2013-05-07 15:21:00,76.1,49.4,30.07,ESE,107,6.0,9.0,39,0.00,,FEW055,0.00,VWS V14.01,2013-05-07 19:21:00,
2013-05-07 15:26:00,75.8,49.1,30.07,SSW,210,3.0,9.0,39,0.00,,FEW055,0.00,VWS V14.01,2013-05-07 19:26:00,
2013-05-07 15:30:00,75.5,48.1,30.06,SSE,163,4.0,9.0,38,0.00,,OVC,0.00,VWS V14.01,2013-05-07 19:30:00,
2013-05-07 15:32:00,75.5,47.4,30.06,South,174,3.0,9.0,37,0.00,,FEW065,0.00,VWS V14.01,2013-05-07 19:32:00,
2013-05-07 15:37:00,75.6,48.2,30.06,ENE,66,4.0,4.0,38,0.00,,FEW065,0.00,VWS V14.01,2013-05-07 19:37:00,
2013-05-07 15:42:00,75.8,48.4,30.06,SSE,152,6.0,10.0,38,0.00,,FEW065,0.00,VWS V14.01,2013-05-07 19:42:00,
2013-05-07 15:47:00,75.8,49.1,30.06,SSW,193,2.0,10.0,39,0.00,,FEW065,0.00,VWS V14.01,2013-05-07 19:47:00,
2013-05-07 15:52:00,75.7,48.3,30.06,SE,125,5.0,10.0,38,0.00,,FEW065,0.00,VWS V14.01,2013-05-07 19:52:00,
2013-05-07 15:57:00,75.5,48.1,30.06,SSE,150,1.0,10.0,38,0.00,,FEW065,0.00,VWS V14.01,2013-05-07 19:57:00,
2013-05-07 16:00:00,75.3,48.0,30.05,South,177,1.0,10.0,38,0.00,,OVC,0.00,VWS V14.01,2013-05-07 20:00:00,
2013-05-07 16:02:00,75.3,48.7,30.05,SSE,156,3.0,10.0,39,0.00,,FEW065,0.00,VWS V14.01,2013-05-07 20:02:00,
2013-05-07 16:07:00,75.3,48.0,30.05,East,97,5.0,7.0,38,0.00,,FEW065,0.00,VWS V14.01,2013-05-07 20:07:00,
2013-05-07 16:12:00,75.7,47.6,30.05,ESE,122,6.0,9.0,37,0.00,,FEW065,0.00,VWS V14.01,2013-05-07 20:12:00,
2013-05-07 16:18:00,75.9,49.2,30.05,South,174,3.0,9.0,39,0.00,,FEW065,0.00,VWS V14.01,2013-05-07 20:18:00,
2013-05-07 16:23:00,75.8,47.7,30.04,South,191,5.0,9.0,37,0.00,,FEW065,0.00,VWS V14.01,2013-05-07 20:23:00,
2013-05-07 16:28:00,75.7,48.3,30.04,SE,131,4.0,9.0,38,0.00,,FEW065,0.00,VWS V14.01,2013-05-07 20:28:00,
2013-05-07 16:30:00,75.9,47.8,30.04,ESE,122,3.0,9.0,37,0.00,,OVC,0.00,VWS V14.01,2013-05-07 20:30:00,
2013-05-07 16:33:00,75.9,47.8,30.04,SE,125,6.0,6.0,37,0.00,,FEW065,0.00,VWS V14.01,2013-05-07 20:33:00,
2013-05-07 16:38:00,75.8,47.7,30.04,SSW,197,5.0,8.0,37,0.00,,FEW065,0.00,VWS V14.01,2013-05-07 20:38:00,
2013-05-07 16:43:00,75.9,47.8,30.04,ESE,113,4.0,9.0,37,0.00,,FEW065,0.00,VWS V14.01,2013-05-07 20:43:00,
2013-05-07 16:48:00,76.0,48.6,30.04,ESE,110,7.0,13.0,38,0.00,,SCT080,0.00,VWS V14.01,2013-05-07 20:48:00,
2013-05-07 16:53:00,75.8,47.7,30.04,SE,139,3.0,13.0,37,0.00,,SCT080,0.00,VWS V14.01,2013-05-07 20:53:00,
2013-05-07 16:58:00,75.8,48.4,30.04,SW,216,4.0,13.0,38,0.00,,SCT080,0.00,VWS V14.01,2013-05-07 20:58:00,
2013-05-07 17:00:00,75.9,47.8,30.04,South,177,4.0,13.0,37,0.00,,OVC,0.00,VWS V14.01,2013-05-07 21:00:00,
2013-05-07 17:03:00,75.9,48.5,30.04,ESE,104,11.0,11.0,38,0.00,,SCT080,0.00,VWS V14.01,2013-05-07 21:03:00,
2013-05-07 17:09:00,75.7,46.9,30.04,SE,129,5.0,11.0,36,0.00,,SCT080,0.00,VWS V14.01,2013-05-07 21:09:00,
2013-05-07 17:14:00,75.7,48.3,30.03,ESE,113,5.0,11.0,38,0.00,,SCT080,0.00,VWS V14.01,2013-05-07 21:14:00,
2013-05-07 17:19:00,75.8,47.7,30.03,SE,131,3.0,11.0,37,0.00,,SCT080,0.00,VWS V14.01,2013-05-07 21:19:00,
2013-05-07 17:24:00,75.7,46.9,30.03,SE,125,3.0,11.0,36,0.00,,SCT080,0.00,VWS V14.01,2013-05-07 21:24:00,
2013-05-07 17:29:00,75.7,46.9,30.04,SSE,158,2.0,11.0,36,0.00,,SCT080,0.00,VWS V14.01,2013-05-07 21:29:00,
2013-05-07 17:30:00,75.6,47.5,30.03,SW,226,2.0,11.0,37,0.00,,OVC,0.00,VWS V14.01,2013-05-07 21:30:00,
2013-05-07 17:34:00,75.4,47.3,30.03,SW,221,2.0,4.0,37,0.00,,SCT080,0.00,VWS V14.01,2013-05-07 21:34:00,
2013-05-07 17:39:00,75.2,47.9,30.03,SSW,200,4.0,4.0,38,0.00,,SCT080,0.00,VWS V14.01,2013-05-07 21:39:00,
2013-05-07 17:45:00,75.1,46.3,30.03,South,186,1.0,7.0,36,0.00,,SCT080,0.00,VWS V14.01,2013-05-07 21:45:00,
2013-05-07 17:50:00,75.0,46.3,30.03,SE,124,4.0,7.0,36,0.00,,CLR,0.00,VWS V14.01,2013-05-07 21:50:00,
2013-05-07 17:55:00,75.0,47.0,30.03,SSE,159,6.0,9.0,37,0.00,,CLR,0.00,VWS V14.01,2013-05-07 21:55:00,
2013-05-07 18:00:00,75.0,46.3,30.03,East,96,5.0,10.0,36,0.00,,CLR,0.00,VWS V14.01,2013-05-07 22:00:00,
2013-05-07 18:05:00,75.1,46.3,30.03,SSE,156,3.0,8.0,36,0.00,,CLR,0.00,VWS V14.01,2013-05-07 22:05:00,
2013-05-07 18:10:00,75.1,45.6,30.03,SSE,150,2.0,8.0,35,0.00,,CLR,0.00,VWS V14.01,2013-05-07 22:10:00,
2013-05-07 18:15:00,75.1,45.6,30.03,SW,224,1.0,8.0,35,0.00,,CLR,0.00,VWS V14.01,2013-05-07 22:15:00,
2013-05-07 18:20:00,75.2,46.4,30.03,SSW,195,1.0,8.0,36,0.00,,CLR,0.00,VWS V14.01,2013-05-07 22:20:00,
2013-05-07 18:25:00,75.3,45.8,30.03,ESE,122,3.0,8.0,35,0.00,,CLR,0.00,VWS V14.01,2013-05-07 22:25:00,
2013-05-07 18:30:00,75.2,46.4,30.03,SE,138,2.0,8.0,36,0.00,,CLR,0.00,VWS V14.01,2013-05-07 22:30:00,
2013-05-07 18:36:00,75.2,46.4,30.03,SSE,156,2.0,4.0,36,0.00,,CLR,0.00,VWS V14.01,2013-05-07 22:36:00,
2013-05-07 18:41:00,75.1,46.3,30.03,SSW,207,1.0,4.0,36,0.00,,CLR,0.00,VWS V14.01,2013-05-07 22:41:00,
2013-05-07 18:46:00,75.0,46.3,30.03,SSW,207,1.0,5.0,36,0.00,,CLR,0.00,VWS V14.01,2013-05-07 22:46:00,
2013-05-07 18:51:00,74.9,45.4,30.03,SSW,198,4.0,5.0,35,0.00,,CLR,0.00,VWS V14.01,2013-05-07 22:51:00,
2013-05-07 18:56:00,74.8,45.3,30.03,SE,138,4.0,5.0,35,0.00,,CLR,0.00,VWS V14.01,2013-05-07 22:56:00,
2013-05-07 19:00:00,74.6,45.2,30.04,South,174,1.0,6.0,35,0.00,,OVC,0.00,VWS V14.01,2013-05-07 23:00:00,
2013-05-07 19:01:00,74.6,45.2,30.03,SSW,200,3.0,6.0,35,0.00,,CLR,0.00,VWS V14.01,2013-05-07 23:01:00,
2013-05-07 19:06:00,74.4,45.0,30.03,SSE,154,1.0,2.0,35,0.00,,CLR,0.00,VWS V14.01,2013-05-07 23:06:00,
2013-05-07 19:11:00,74.2,45.6,30.04,SSE,150,1.0,4.0,36,0.00,,CLR,0.00,VWS V14.01,2013-05-07 23:11:00,
2013-05-07 19:16:00,73.9,46.0,30.04,SW,218,1.0,4.0,37,0.00,,CLR,0.00,VWS V14.01,2013-05-07 23:16:00,
2013-05-07 19:21:00,73.5,46.4,30.04,SE,139,0.0,4.0,38,0.00,,CLR,0.00,VWS V14.01,2013-05-07 23:21:00,
2013-05-07 19:27:00,73.1,45.3,30.04,ESE,116,0.0,4.0,37,0.00,,CLR,0.00,VWS V14.01,2013-05-07 23:27:00,
2013-05-07 19:30:00,72.9,45.8,30.04,ESE,122,1.0,4.0,38,0.00,,OVC,0.00,VWS V14.01,2013-05-07 23:30:00,
2013-05-07 19:32:00,72.9,45.1,30.04,East,80,1.0,4.0,37,0.00,,CLR,0.00,VWS V14.01,2013-05-07 23:32:00,
2013-05-07 19:37:00,72.5,45.5,30.04,SE,128,2.0,3.0,38,0.00,,CLR,0.00,VWS V14.01,2013-05-07 23:37:00,
2013-05-07 19:42:00,72.2,45.9,30.04,SE,124,0.0,3.0,39,0.00,,CLR,0.00,VWS V14.01,2013-05-07 23:42:00,
2013-05-07 19:47:00,71.6,46.7,30.04,ESE,108,0.0,3.0,41,0.00,,BKN090,0.00,VWS V14.01,2013-05-07 23:47:00,
2013-05-07 19:52:00,70.5,48.2,30.04,ESE,108,0.0,3.0,45,0.00,,BKN090,0.00,VWS V14.01,2013-05-07 23:52:00,
2013-05-07 19:57:00,69.3,47.1,30.04,ESE,108,0.0,3.0,45,0.00,,BKN090,0.00,VWS V14.01,2013-05-07 23:57:00,
2013-05-07 20:00:00,68.2,47.2,30.04,NNE,25,1.0,3.0,47,0.00,,OVC,0.00,VWS V14.01,2013-05-08 00:00:00,
2013-05-07 20:02:00,68.3,47.9,30.05,NNE,25,0.0,3.0,48,0.00,,BKN090,0.00,VWS V14.01,2013-05-08 00:02:00,
2013-05-07 20:07:00,67.7,49.5,30.04,NNW,340,1.0,2.0,52,0.00,,BKN090,0.00,VWS V14.01,2013-05-08 00:07:00,
2013-05-07 20:12:00,67.3,52.0,30.05,North,5,3.0,3.0,58,0.00,,BKN090,0.00,VWS V14.01,2013-05-08 00:12:00,
2013-05-07 20:18:00,66.6,53.2,30.05,NNE,20,0.0,3.0,62,0.00,,CLR,0.00,VWS V14.01,2013-05-08 00:18:00,
2013-05-07 20:23:00,66.2,53.2,30.05,NNE,19,0.0,3.0,63,0.00,,CLR,0.00,VWS V14.01,2013-05-08 00:23:00,
2013-05-07 20:28:00,66.1,53.6,30.05,NNE,19,0.0,3.0,64,0.00,,CLR,0.00,VWS V14.01,2013-05-08 00:28:00,
2013-05-07 20:30:00,65.7,53.2,30.05,NNE,20,0.0,3.0,64,0.00,,OVC,0.00,VWS V14.01,2013-05-08 00:30:00,
2013-05-07 20:33:00,65.6,53.1,30.05,NNE,20,0.0,0.0,64,0.00,,CLR,0.00,VWS V14.01,2013-05-08 00:33:00,
2013-05-07 20:38:00,65.1,53.5,30.05,NNE,20,1.0,2.0,66,0.00,,CLR,0.00,VWS V14.01,2013-05-08 00:38:00,
2013-05-07 20:43:00,64.6,53.4,30.05,NNE,15,1.0,2.0,67,0.00,,CLR,0.00,VWS V14.01,2013-05-08 00:43:00,
2013-05-07 20:48:00,64.1,53.3,30.06,NNE,15,0.0,2.0,68,0.00,,CLR,0.00,VWS V14.01,2013-05-08 00:48:00,
2013-05-07 20:53:00,64.1,53.3,30.06,NNE,23,0.0,2.0,68,0.00,,CLR,0.00,VWS V14.01,2013-05-08 00:53:00,
2013-05-07 20:58:00,64.1,53.3,30.06,NNE,23,0.0,2.0,68,0.00,,CLR,0.00,VWS V14.01,2013-05-08 00:58:00,
2013-05-07 21:00:00,63.9,53.5,30.06,NNE,23,0.0,2.0,69,0.00,,OVC,0.00,VWS V14.01,2013-05-08 01:00:00,
2013-05-07 21:04:00,63.8,53.5,30.06,NNE,23,0.0,0.0,69,0.00,,CLR,0.00,VWS V14.01,2013-05-08 01:04:00,
2013-05-07 21:09:00,63.5,53.2,30.06,NNE,23,0.0,0.0,69,0.00,,CLR,0.00,VWS V14.01,2013-05-08 01:09:00,
2013-05-07 21:14:00,63.2,53.3,30.06,NNE,23,0.0,0.0,70,0.00,,CLR,0.00,VWS V14.01,2013-05-08 01:14:00,
2013-05-07 21:19:00,63.1,53.2,30.06,NNE,23,0.0,0.0,70,0.00,,CLR,0.00,VWS V14.01,2013-05-08 01:19:00,
2013-05-07 21:24:00,62.9,53.0,30.06,NNE,23,0.0,0.0,70,0.00,,CLR,0.00,VWS V14.01,2013-05-08 01:24:00,
2013-05-07 21:29:00,62.8,52.9,30.07,NNE,23,0.0,0.0,70,0.00,,CLR,0.00,VWS V14.01,2013-05-08 01:29:00,
2013-05-07 21:30:00,62.6,53.1,30.07,NNE,23,0.0,0.0,71,0.00,,OVC,0.00,VWS V14.01,2013-05-08 01:30:00,
2013-05-07 21:34:00,62.5,53.0,30.07,NNE,23,0.0,0.0,71,0.00,,CLR,0.00,VWS V14.01,2013-05-08 01:34:00,
2013-05-07 21:39:00,62.2,52.7,30.07,NNE,23,0.0,0.0,71,0.00,,CLR,0.00,VWS V14.01,2013-05-08 01:39:00,
2013-05-07 21:45:00,62.0,52.9,30.07,NNE,23,0.0,0.0,72,0.00,,CLR,0.00,VWS V14.01,2013-05-08 01:45:00,
2013-05-07 21:50:00,61.6,52.9,30.07,NNE,23,0.0,0.0,73,0.00,,FEW100,0.00,VWS V14.01,2013-05-08 01:50:00,
2013-05-07 21:55:00,61.4,52.7,30.07,NNE,23,0.0,0.0,73,0.00,,FEW100,0.00,VWS V14.01,2013-05-08 01:55:00,
2013-05-07 22:00:00,61.3,52.6,30.07,East,80,0.0,0.0,73,0.00,,FEW100,0.00,VWS V14.01,2013-05-08 02:00:00,
2013-05-07 22:05:00,61.2,52.5,30.07,East,80,0.0,0.0,73,0.00,,FEW100,0.00,VWS V14.01,2013-05-08 02:05:00,
2013-05-07 22:10:00,61.1,52.8,30.07,East,80,0.0,0.0,74,0.00,,FEW100,0.00,VWS V14.01,2013-05-08 02:10:00,
2013-05-07 22:15:00,60.8,52.5,30.07,East,80,0.0,0.0,74,0.00,,FEW100,0.00,VWS V14.01,2013-05-08 02:15:00,
2013-05-07 22:20:00,60.7,52.4,30.07,East,82,0.0,0.0,74,0.00,,FEW100,0.00,VWS V14.01,2013-05-08 02:20:00,
2013-05-07 22:25:00,60.3,52.0,30.07,East,82,0.0,0.0,74,0.00,,FEW100,0.00,VWS V14.01,2013-05-08 02:25:00,
2013-05-07 22:30:00,60.0,52.1,30.07,East,82,0.0,0.0,75,0.00,,OVC,0.00,VWS V14.01,2013-05-08 02:30:00,
2013-05-07 22:31:00,60.0,52.1,30.07,East,82,0.0,0.0,75,0.00,,FEW100,0.00,VWS V14.01,2013-05-08 02:31:00,
2013-05-07 22:36:00,60.0,52.1,30.07,East,82,0.0,0.0,75,0.00,,FEW100,0.00,VWS V14.01,2013-05-08 02:36:00,
2013-05-07 22:41:00,60.1,52.2,30.08,East,79,0.0,0.0,75,0.00,,FEW100,0.00,VWS V14.01,2013-05-08 02:41:00,
2013-05-07 22:46:00,59.9,52.3,30.08,East,79,0.0,0.0,76,0.00,,CLR,0.00,VWS V14.01,2013-05-08 02:46:00,
2013-05-07 22:51:00,59.7,52.1,30.08,East,79,0.0,0.0,76,0.00,,CLR,0.00,VWS V14.01,2013-05-08 02:51:00,
2013-05-07 22:56:00,59.6,52.0,30.08,East,79,0.0,0.0,76,0.00,,CLR,0.00,VWS V14.01,2013-05-08 02:56:00,
2013-05-07 23:00:00,59.4,52.2,30.08,East,79,0.0,0.0,77,0.00,,OVC,0.00,VWS V14.01,2013-05-08 03:00:00,
2013-05-07 23:01:00,59.4,52.2,30.08,East,79,0.0,0.0,77,0.00,,CLR,0.00,VWS V14.01,2013-05-08 03:01:00,
2013-05-07 23:06:00,59.4,52.2,30.08,East,79,0.0,0.0,77,0.00,,CLR,0.00,VWS V14.01,2013-05-08 03:06:00,
2013-05-07 23:11:00,59.6,52.4,30.08,NE,45,0.0,0.0,77,0.00,,CLR,0.00,VWS V14.01,2013-05-08 03:11:00,
2013-05-07 23:16:00,59.8,52.2,30.08,NE,46,0.0,0.0,76,0.00,,CLR,0.00,VWS V14.01,2013-05-08 03:16:00,
2013-05-07 23:22:00,60.1,52.2,30.08,NE,46,0.0,0.0,75,0.00,,CLR,0.00,VWS V14.01,2013-05-08 03:22:00,
2013-05-07 23:27:00,60.0,52.1,30.08,NE,46,0.0,0.0,75,0.00,,CLR,0.00,VWS V14.01,2013-05-08 03:27:00,
2013-05-07 23:30:00,59.8,51.9,30.08,NE,45,0.0,0.0,75,0.00,,OVC,0.00,VWS V14.01,2013-05-08 03:30:00,
2013-05-07 23:32:00,59.9,51.6,30.08,NE,45,0.0,0.0,74,0.00,,CLR,0.00,VWS V14.01,2013-05-08 03:32:00,
2013-05-07 23:37:00,59.3,51.8,30.08,NE,46,0.0,0.0,76,0.00,,CLR,0.00,VWS V14.01,2013-05-08 03:37:00,
2013-05-07 23:42:00,59.3,51.8,30.08,NE,45,0.0,0.0,76,0.00,,CLR,0.00,VWS V14.01,2013-05-08 03:42:00,
2013-05-07 23:47:00,59.4,51.8,30.08,NE,45,0.0,0.0,76,0.00,,CLR,0.00,VWS V14.01,2013-05-08 03:47:00,
2013-05-07 23:52:00,59.4,51.8,30.08,NE,46,0.0,0.0,76,0.00,,CLR,0.00,VWS V14.01,2013-05-08 03:52:00,
2013-05-07 23:57:00,59.2,52.0,30.08,NE,46,0.0,0.0,77,0.00,,CLR,0.00,VWS V14.01,2013-05-08 03:57:00,